ADDS METAR Data INFO
IDs: Format: Raw Decoded Include TAF

Data at: 2305 UTC 21 Feb 2018

KHPN 212256Z 24005KT 10SM FEW040 23/14 A3022 RMK AO2 SLP232 T02330139
KHPN 212156Z 24006KT 10SM FEW030 24/14 A3019 RMK AO2 RAB47E52 SLP221 P0000 T02440139
KHPN 212056Z 24007G17KT 210V290 10SM FEW030 25/14 A3019 RMK AO2 SLP219 T02500139 55005
KHPN 211956Z VRB06G17KT 10SM FEW030 25/14 A3018 RMK AO2 SLP217 T02500139
KHPN 211856Z 22010G16KT 190V270 10SM FEW030 24/14 A3018 RMK AO2 SLP219 T02390144
KHPN 211756Z 19011G15KT 10SM CLR 23/14 A3020 RMK AO2 SLP225 T02280139 10228 20111 58020
KHPN 211656Z VRB06KT 10SM CLR 21/14 A3023 RMK AO2 SLP236 T02060144
KHPN 211556Z 25009G15KT 9SM FEW012 BKN015 18/14 A3026 RMK AO2 SLP245 T01830144
KHPN 211456Z 00000KT 4SM BR FEW010 BKN012 15/13 A3028 RMK AO2 SLP253 T01500133 58002
KHPN 211356Z 16003KT 1 1/2SM BR BKN006 BKN012 13/12 A3028 RMK AO2 SLP253 T01280122
KHPN 211256Z 17004KT 1 1/4SM BR BKN004 BKN012 12/12 A3029 RMK AO2 SLP258 T01170117
KHPN 210756Z 19003KT M1/4SM R16/1000FT FG VV001 11/11 A3029 RMK AO2 SLP257 T01110111
KHPN 210717Z 18004KT 1/4SM R16/1200V2200FT FG VV001 11/11 A3030 RMK AO2 T01060106
KHPN 210656Z VRB03KT 3/4SM R16/3000VP6000FT BR VV002 10/10 A3029 RMK AO2 SLP259 T01000100
KHPN 210640Z 00000KT 1 3/4SM BR BKN003 08/08 A3030 RMK AO2 T00830083
KHPN 210607Z 00000KT 1 3/4SM BR CLR 10/09 A3030 RMK AO2 T01000094
KHPN 210556Z 18003KT 5SM BR CLR 10/09 A3031 RMK AO2 SLP264 T01000094 10144 20094 58000
KHPN 201456Z 25005KT 1SM R16/P6000FT BR VV003 09/09 A3032 RMK AO2 SLP273 T00940094 51010
KHPN 201356Z VRB04KT 1SM R16/P6000FT BR VV002 09/09 A3031 RMK AO2 SLP269 T00940089
KHPN 201324Z 24005KT 1 1/2SM BR VV002 09/09 A3032 RMK AO2 T00940089
KHPN 201256Z 26007KT 1/2SM R16/2800V5000FT FG VV002 09/09 A3031 RMK AO2 SLP267 T00890089
KHPN 201156Z VRB03KT 1/2SM R16/2800V5000FT FG VV001 08/08 A3029 RMK AO2 SLP263 SFC VIS 3/4 70005 T00830083 10089 20050 53011